Time;durP1;ratioP1;P1;durP2;ratioP2;P2;SDS_P1;SDS_P2;PMS_P1;PMS_P2;Temp;Humidity;BMP_temperature;BMP_pressure;BME280_temperature;BME280_humidity;BME280_pressure;Samples;Min_cycle;Max_cycle;Signal;HPM_P1;HPM_P2
2022/07/30 00:03:46;;;;;;;;;;;;;;;;;;;;;
2022/07/30 00:11:04;;;;;;;2.15;1.00;;;15.30;99.90;;;;;;6275459;22;20014;-86
2022/07/30 00:13:37;;;;;;;1.30;0.75;;;15.00;99.90;;;;;;6244672;22;20347;-86
2022/07/30 00:16:52;;;;;;;;;;;;;;;;;;;;;
2022/07/30 00:19:59;;;;;;;2.13;0.90;;;14.80;99.90;;;;;;6272839;22;20513;-86
2022/07/30 00:22:47;;;;;;;1.50;1.00;;;14.80;99.90;;;;;;6273014;22;20019;-86
2022/07/30 00:25:46;;;;;;;3.25;1.17;;;14.70;99.90;;;;;;6277108;22;20054;-85
2022/07/30 00:29:04;;;;;;;;;;;;;;;;;;;;;
2022/07/30 00:32:03;;;;;;;;;;;;;;;;;;;;;
2022/07/30 00:39:15;;;;;;;;;;;;;;;;;;;;;
2022/07/30 00:54:07;;;;;;;2.38;1.20;;;14.60;99.90;;;;;;6037497;23;20070;-86
2022/07/30 00:57:29;;;;;;;;;;;;;;;;;;;;;
2022/07/30 01:12:25;;;;;;;1.55;0.95;;;14.50;99.90;;;;;;4778016;27;11512590;-87
2022/07/30 01:15:05;;;;;;;;;;;15.10;99.90;;;;;;5153053;27;20053;-87
2022/07/30 01:17:54;;;;;;;1.75;0.80;;;14.70;99.90;;;;;;5161015;27;20013;-86
2022/07/30 01:20:57;;;;;;;0.68;0.50;;;14.40;99.90;;;;;;5172668;27;20111;-86
2022/07/30 01:23:49;;;;;;;0.60;0.50;;;14.20;99.90;;;;;;5153472;27;20114;-86
2022/07/30 01:26:33;;;;;;;1.10;0.60;;;14.20;99.90;;;;;;5142499;27;20384;-86
2022/07/30 01:29:04;;;;;;;0.55;0.40;;;14.20;99.90;;;;;;5132847;27;20479;-86
2022/07/30 01:31:39;;;;;;;0.95;0.50;;;14.40;99.90;;;;;;5132607;27;20047;-86
2022/07/30 01:34:25;;;;;;;;;;;;;;;;;;;;;
2022/07/30 01:37:11;;;;;;;0.50;0.40;;;14.00;99.90;;;;;;5128133;27;20112;-86
2022/07/30 01:39:55;;;;;;;1.10;0.50;;;14.00;99.90;;;;;;5150416;27;20034;-86
2022/07/30 01:42:28;;;;;;;2.40;0.68;;;13.70;99.90;;;;;;5124118;28;20043;-86
2022/07/30 01:45:04;;;;;;;0.68;0.45;;;14.00;99.90;;;;;;5129079;27;20032;-86
2022/07/30 01:47:42;;;;;;;0.90;0.60;;;13.90;99.90;;;;;;5129995;27;20127;-87
2022/07/30 01:50:13;;;;;;;1.35;0.50;;;13.90;99.90;;;;;;5129382;28;20050;-86
2022/07/30 01:52:46;;;;;;;1.17;0.70;;;14.00;99.90;;;;;;5129450;28;20481;-86
2022/07/30 01:55:24;;;;;;;0.90;0.52;;;13.90;99.90;;;;;;5131461;27;20228;-86
2022/07/30 01:58:01;;;;;;;0.93;0.40;;;13.90;99.90;;;;;;5148932;27;20035;-86
2022/07/30 02:00:44;;;;;;;0.30;0.30;;;13.70;99.90;;;;;;5133082;27;20568;-86
2022/07/30 02:03:30;;;;;;;0.40;0.20;;;13.80;99.90;;;;;;5149527;27;20407;-86
2022/07/30 02:06:25;;;;;;;0.65;0.30;;;13.70;99.90;;;;;;5149887;27;20039;-87
2022/07/30 02:09:01;;;;;;;0.88;0.45;;;13.70;99.90;;;;;;5136932;27;20065;-86
2022/07/30 02:15:25;;;;;;;;;;;;;;;;;;;;;
2022/07/30 02:18:31;;;;;;;1.20;0.70;;;13.60;99.90;;;;;;5065436;28;20062;-86
2022/07/30 02:21:25;;;;;;;2.92;1.30;;;13.90;99.90;;;;;;5047574;28;20132;-86
2022/07/30 02:23:57;;;;;;;2.55;1.10;;;13.40;99.90;;;;;;5035842;28;20056;-86
2022/07/30 02:26:47;;;;;;;1.63;1.00;;;13.40;99.90;;;;;;5036816;28;20032;-86
2022/07/30 02:29:32;;;;;;;2.53;1.40;;;13.30;99.90;;;;;;5051291;28;20053;-85
2022/07/30 02:32:17;;;;;;;3.17;1.52;;;13.20;99.90;;;;;;5036272;28;20045;-86
2022/07/30 02:35:05;;;;;;;2.30;1.10;;;13.30;99.90;;;;;;5036231;28;20056;-86
2022/07/30 02:37:47;;;;;;;3.20;1.50;;;13.30;99.90;;;;;;5022081;28;20090;-86
2022/07/30 02:40:25;;;;;;;2.20;1.50;;;13.30;99.90;;;;;;5054072;28;20429;-86
2022/07/30 02:43:38;;;;;;;3.92;2.17;;;13.30;99.90;;;;;;5039329;28;20231;-86
2022/07/30 02:46:23;;;;;;;;;;;;;;;;;;;;;
2022/07/30 02:49:13;;;;;;;2.67;1.50;;;13.30;99.90;;;;;;5097472;27;20052;-86
2022/07/30 02:52:14;;;;;;;2.13;1.45;;;13.40;99.90;;;;;;5133691;27;20051;-87
2022/07/30 02:55:02;;;;;;;3.85;1.50;;;13.40;99.90;;;;;;5116490;27;20032;-86
2022/07/30 02:57:40;;;;;;;3.03;1.73;;;13.40;99.90;;;;;;5117396;27;20059;-86
2022/07/30 03:00:26;;;;;;;4.35;1.70;;;13.50;99.90;;;;;;5133772;27;20132;-86
2022/07/30 03:03:08;;;;;;;3.58;1.90;;;13.50;99.90;;;;;;5135765;27;20042;-86
2022/07/30 03:09:08;;;;;;;3.35;1.77;;;13.40;99.90;;;;;;5132334;27;20050;-86
2022/07/30 03:12:12;;;;;;;;;;;;;;;;;;;;;
2022/07/30 03:14:58;;;;;;;3.05;1.92;;;13.40;99.90;;;;;;5127134;27;20137;-86
2022/07/30 03:17:31;;;;;;;3.13;1.70;;;14.00;99.90;;;;;;5117179;27;20074;-86
2022/07/30 03:20:21;;;;;;;;;;;;;;;;;;;;;
2022/07/30 03:23:06;;;;;;;4.05;1.67;;;13.40;99.90;;;;;;5115103;27;20089;-86
2022/07/30 03:26:12;;;;;;;2.92;1.67;;;13.40;99.90;;;;;;5096189;27;20053;-86
2022/07/30 03:28:42;;;;;;;2.58;1.50;;;13.50;99.90;;;;;;5096867;28;20077;-86
2022/07/30 03:31:10;;;;;;;2.67;1.70;;;13.50;99.90;;;;;;5094963;28;20086;-86
2022/07/30 03:33:54;;;;;;;;;;;;;;;;;;;;;
2022/07/30 03:36:40;;;;;;;2.45;1.33;;;13.40;99.90;;;;;;5112392;28;20055;-86
2022/07/30 03:39:12;;;;;;;1.90;1.25;;;13.50;99.90;;;;;;5096744;28;20131;-86
2022/07/30 03:41:41;;;;;;;1.75;1.27;;;13.50;99.90;;;;;;5114173;28;20046;-87
2022/07/30 03:44:26;;;;;;;;;;;;;;;;;;;;;
2022/07/30 03:46:59;;;;;;;2.17;1.50;;;13.40;99.90;;;;;;5113106;28;20044;-86
2022/07/30 03:49:39;;;;;;;2.25;1.33;;;13.30;99.90;;;;;;5080058;28;20054;-85
2022/07/30 03:52:12;;;;;;;2.38;1.10;;;13.60;99.90;;;;;;5114272;28;20050;-87
2022/07/30 03:54:47;;;;;;;2.58;1.25;;;13.50;99.90;;;;;;5114182;28;20116;-86
2022/07/30 03:57:23;;;;;;;1.77;1.27;;;13.50;99.90;;;;;;5130273;27;20043;-86
2022/07/30 04:00:07;;;;;;;1.58;1.05;;;13.60;99.90;;;;;;5115616;27;20051;-86
2022/07/30 04:02:49;;;;;;;1.65;1.10;;;13.50;99.90;;;;;;5098459;27;20052;-87
2022/07/30 04:05:33;;;;;;;2.15;1.40;;;13.60;99.90;;;;;;5087651;22;20457;-86
2022/07/30 04:11:06;;;;;;;3.67;1.45;;;13.40;99.90;;;;;;5070421;28;20041;-86
2022/07/30 04:13:38;;;;;;;3.83;1.48;;;13.50;99.90;;;;;;5068195;28;20044;-86
2022/07/30 04:16:22;;;;;;;1.98;1.25;;;13.40;99.90;;;;;;5072389;28;20040;-87
2022/07/30 04:19:08;;;;;;;;;;;;;;;;;;;;;
2022/07/30 04:21:52;;;;;;;2.83;1.30;;;13.40;99.90;;;;;;5068812;28;20412;-85
2022/07/30 04:24:19;;;;;;;1.73;1.10;;;13.90;99.90;;;;;;5055291;28;20045;-86
2022/07/30 04:26:47;;;;;;;1.77;1.33;;;13.50;99.90;;;;;;5055378;28;20055;-86
2022/07/30 04:29:21;;;;;;;2.65;1.50;;;13.50;99.90;;;;;;5072856;28;20092;-87
2022/07/30 04:32:18;;;;;;;3.58;1.40;;;13.60;99.90;;;;;;5039110;28;20122;-87
2022/07/30 04:35:11;;;;;;;2.35;1.30;;;13.60;99.90;;;;;;5053867;28;20091;-87
2022/07/30 04:37:48;;;;;;;2.47;1.52;;;13.60;99.90;;;;;;5055141;28;20052;-86
2022/07/30 04:40:47;;;;;;;2.40;1.40;;;13.60;99.90;;;;;;5050552;28;20060;-86
2022/07/30 04:43:40;;;;;;;2.25;1.48;;;13.60;99.90;;;;;;5034735;28;20040;-87
2022/07/30 04:46:13;;;;;;;3.15;1.10;;;13.50;99.90;;;;;;5050442;28;20049;-86
2022/07/30 04:48:49;;;;;;;2.47;1.40;;;13.40;99.90;;;;;;5020527;28;20511;-85
2022/07/30 04:51:33;;;;;;;1.85;1.27;;;13.40;99.90;;;;;;5053666;28;20048;-87
2022/07/30 04:54:09;;;;;;;2.05;1.30;;;13.30;99.90;;;;;;5037714;28;20596;-86
2022/07/30 04:56:41;;;;;;;1.77;1.17;;;13.70;99.90;;;;;;5054382;28;20049;-86
2022/07/30 04:59:26;;;;;;;2.97;1.40;;;13.90;99.90;;;;;;5054922;28;20400;-86
2022/07/30 05:02:13;;;;;;;2.88;1.50;;;13.30;99.90;;;;;;5036084;28;20045;-86
2022/07/30 05:04:46;;;;;;;2.10;1.30;;;13.30;99.90;;;;;;5034836;28;20048;-86
2022/07/30 05:07:38;;;;;;;3.45;1.58;;;13.30;99.90;;;;;;5041832;28;20405;-86
2022/07/30 05:10:16;;;;;;;2.60;1.85;;;13.40;99.90;;;;;;5053686;28;20517;-86
2022/07/30 05:12:42;;;;;;;2.45;1.42;;;13.40;99.90;;;;;;5054350;28;20092;-86
2022/07/30 05:15:12;;;;;;;3.25;1.45;;;13.50;99.90;;;;;;5072366;28;20072;-85
2022/07/30 05:18:01;;;;;;;1.92;1.42;;;13.60;99.90;;;;;;5053578;28;20064;-86
2022/07/30 05:27:51;;;;;;;2.03;1.50;;;13.90;99.90;;;;;;5072188;28;20137;-86
2022/07/30 05:30:34;;;;;;;3.78;1.42;;;14.00;99.90;;;;;;5054286;28;20087;-86
2022/07/30 05:33:15;;;;;;;;;;;;;;;;;;;;;
2022/07/30 05:38:46;;;;;;;3.25;2.00;;;14.40;99.90;;;;;;4974331;28;20054;-86
2022/07/30 05:41:34;;;;;;;3.83;2.10;;;14.50;99.90;;;;;;4986607;28;20045;-86
2022/07/30 05:44:24;;;;;;;3.53;1.48;;;14.60;99.90;;;;;;4978072;28;20500;-87
2022/07/30 05:50:06;;;;;;;2.92;1.80;;;14.80;99.90;;;;;;4970567;28;20051;-86
2022/07/30 05:53:02;;;;;;;;;;;;;;;;;;;;;
2022/07/30 05:55:46;;;;;;;4.07;1.85;;;15.30;99.90;;;;;;4968237;28;20562;-87
2022/07/30 05:58:22;;;;;;;2.80;2.00;;;16.50;99.90;;;;;;4973004;28;20101;-86
2022/07/30 06:00:57;;;;;;;3.17;1.95;;;15.60;99.90;;;;;;4974314;28;20062;-86
2022/07/30 06:03:37;;;;;;;2.75;1.83;;;15.70;99.90;;;;;;4939649;28;20097;-86
2022/07/30 06:06:11;;;;;;;2.90;1.42;;;15.80;99.90;;;;;;4923529;29;20054;-86
2022/07/30 06:08:55;;;;;;;5.05;1.60;;;16.00;99.90;;;;;;4947731;28;20046;-87
2022/07/30 06:11:56;;;;;;;2.08;1.55;;;16.10;99.90;;;;;;4944440;29;20087;-87
2022/07/30 06:14:38;;;;;;;4.80;2.10;;;16.60;99.90;;;;;;4969106;28;20058;-86
2022/07/30 06:17:25;;;;;;;4.90;2.20;;;16.60;99.90;;;;;;4990343;28;20042;-87
2022/07/30 06:20:24;;;;;;;3.60;2.15;;;16.70;99.90;;;;;;4996810;28;20053;-86
2022/07/30 06:22:55;;;;;;;2.53;1.75;;;16.90;99.90;;;;;;5010904;28;20042;-86
2022/07/30 06:25:26;;;;;;;4.00;2.10;;;17.00;99.90;;;;;;4996550;28;20054;-87
2022/07/30 06:28:30;;;;;;;2.75;1.60;;;17.10;99.90;;;;;;5032396;28;20064;-87
2022/07/30 06:34:50;;;;;;;;;;;;;;;;;;;;;
2022/07/30 06:37:24;;;;;;;3.30;1.77;;;17.50;99.90;;;;;;4892767;29;20067;-87
2022/07/30 06:39:50;;;;;;;4.65;2.50;;;17.70;99.90;;;;;;4938693;29;20051;-86
2022/07/30 06:42:28;;;;;;;10.98;5.60;;;17.90;99.90;;;;;;4939086;29;20051;-86
2022/07/30 06:44:56;;;;;;;4.78;2.78;;;18.10;99.90;;;;;;4953742;29;20047;-87
2022/07/30 06:47:30;;;;;;;3.58;2.25;;;18.10;99.90;;;;;;4938869;29;20040;-86
2022/07/30 07:01:03;;;;;;;4.40;2.65;;;18.90;99.90;;;;;;4976280;23;20048;-91
2022/07/30 10:12:24;;;;;;;;;;;26.30;98.20;;;;;;4990692;24;20061;-88
2022/07/30 10:26:33;;;;;;;1.17;0.52;;;26.70;96.90;;;;;;4949416;24;20049;-92
2022/07/30 10:29:48;;;;;;;2.30;1.05;;;26.50;99.30;;;;;;4735622;30;20057;-89
2022/07/30 10:32:24;;;;;;;;;;;;;;;;;;;;;
2022/07/30 10:35:35;;;;;;;;;;;;;;;;;;;;;
2022/07/30 10:41:39;;;;;;;1.48;0.70;;;27.10;96.90;;;;;;4742695;24;20059;-89
2022/07/30 10:44:08;;;;;;;2.85;1.10;;;27.00;97.90;;;;;;4724046;30;20045;-88
2022/07/30 10:47:24;;;;;;;6.05;1.00;;;27.00;97.50;;;;;;4735772;30;20053;-89
2022/07/30 10:50:14;;;;;;;3.20;0.80;;;26.90;97.20;;;;;;4736257;30;20138;-88
2022/07/30 10:52:51;;;;;;;4.78;0.70;;;27.10;96.50;;;;;;4734289;30;20045;-87
2022/07/30 10:55:23;;;;;;;2.05;0.77;;;27.20;98.40;;;;;;4734463;30;20060;-90
2022/07/30 10:58:11;;;;;;;5.53;1.00;;;27.30;97.30;;;;;;4733865;30;20557;-87
2022/07/30 11:00:59;;;;;;;2.90;0.70;;;27.10;97.20;;;;;;4736556;30;20402;-88
2022/07/30 11:03:27;;;;;;;5.57;1.10;;;26.80;97.30;;;;;;4699378;30;20520;-87
2022/07/30 11:06:14;;;;;;;3.60;0.88;;;26.90;97.30;;;;;;4685021;30;20073;-90
2022/07/30 11:08:47;;;;;;;3.80;1.45;;;26.60;98.00;;;;;;4684911;30;20063;-90
2022/07/30 11:11:21;;;;;;;3.70;0.95;;;26.30;97.70;;;;;;4685333;30;20083;-88
2022/07/30 11:13:58;;;;;;;3.42;1.20;;;26.00;98.20;;;;;;4698594;30;20079;-89
2022/07/30 11:16:44;;;;;;;4.40;0.90;;;25.80;98.70;;;;;;4685088;30;20129;-89
2022/07/30 11:19:23;;;;;;;3.85;0.93;;;25.50;99.70;;;;;;4667660;30;20053;-86
2022/07/30 11:22:25;;;;;;;2.22;1.20;;;25.60;99.90;;;;;;4682747;30;20117;-89
2022/07/30 11:24:55;;;;;;;4.40;0.90;;;26.00;99.90;;;;;;4698980;30;20417;-91
2022/07/30 11:27:56;;;;;;;2.47;0.95;;;26.30;99.00;;;;;;4684836;30;20120;-86
2022/07/30 11:30:21;;;;;;;2.88;1.00;;;26.60;98.60;;;;;;4665416;30;20061;-87
2022/07/30 11:32:55;;;;;;;3.08;1.10;;;26.90;97.10;;;;;;4681150;30;20057;-86
2022/07/30 11:35:33;;;;;;;4.25;1.08;;;27.00;96.70;;;;;;4667237;30;20097;-85
2022/07/30 11:38:11;;;;;;;4.47;1.08;;;27.00;95.80;;;;;;4681288;30;20159;-88
2022/07/30 11:40:57;;;;;;;;;;;26.60;97.70;;;;;;4673898;30;20153;-87
2022/07/30 11:43:40;;;;;;;3.50;1.33;;;26.40;97.70;;;;;;4653056;30;19931;-89
2022/07/30 11:46:22;;;;;;;4.80;1.15;;;26.00;98.00;;;;;;4684191;30;20076;-89
2022/07/30 11:48:59;;;;;;;4.63;1.10;;;26.00;98.80;;;;;;4668465;30;20132;-91
2022/07/30 11:51:25;;;;;;;5.65;1.00;;;25.90;98.70;;;;;;4667401;30;20081;-91
2022/07/30 11:54:02;;;;;;;2.35;1.00;;;26.10;97.80;;;;;;4695793;30;20481;-92
2022/07/30 11:57:02;;;;;;;3.17;1.00;;;26.20;98.90;;;;;;4682536;30;20493;-91
2022/07/30 11:59:31;;;;;;;3.88;1.27;;;26.30;98.10;;;;;;4664079;30;20531;-94
2022/07/30 12:02:00;;;;;;;3.90;1.10;;;26.60;97.10;;;;;;4650366;30;20058;-90
2022/07/30 12:04:28;;;;;;;3.42;1.00;;;26.50;97.90;;;;;;4663014;30;20061;-89
2022/07/30 12:06:57;;;;;;;2.65;0.95;;;26.60;98.50;;;;;;4714652;30;20212;-93
2022/07/30 12:09:30;;;;;;;2.67;1.02;;;26.90;98.30;;;;;;4717988;30;20053;-91
2022/07/30 12:12:16;;;;;;;3.00;0.80;;;27.50;96.50;;;;;;4718544;30;20057;-92
2022/07/30 12:14:42;;;;;;;4.07;1.40;;;27.30;97.20;;;;;;4718189;30;20102;-92
2022/07/30 12:17:46;;;;;;;1.40;0.90;;;27.50;96.90;;;;;;4718882;30;20052;-91
2022/07/30 12:54:01;;;;;;;6.13;1.70;;;27.40;94.80;;;;;;4753252;24;20455;-91
2022/07/30 12:56:59;;;;;;;3.03;1.17;;;26.80;95.40;;;;;;4765156;24;20087;-90
2022/07/30 13:12:14;;;;;;;3.60;0.60;;;27.10;94.70;;;;;;4758969;30;20426;-88
2022/07/30 13:17:47;;;;;;;2.00;0.70;;;27.00;95.50;;;;;;5514028;24;20032;-89
2022/07/30 13:28:05;;;;;;;1.45;0.90;;;26.50;97.00;;;;;;5056284;24;19934;-92
2022/07/30 13:30:40;;;;;;;3.03;1.00;;;27.00;94.80;;;;;;5032067;24;20053;-92
2022/07/30 21:56:22;;;;;;;0.73;0.52;;;18.90;99.90;;;;;;5763006;24;20082;31
2022/07/30 21:59:19;;;;;;;1.20;0.50;;;19.00;99.90;;;;;;4700265;30;20060;-88
